Raritan, Illinois
Current Conditions -  °F | °C
As of 9:35 PM on Monday 20 Oct 2014 (Local Time) from KMQB Reporting Station
Clear Clear  
Wind Chill:   Ceiling: Unl
Heat Index:   Visibility: 10mi
Dew Point:   Wind: 8mph
Humidity: 85%   Direction: 280°W
Pressure: 30.02"   Gusts: NA
Location:  40.7°N, 90.83°W
Report Text: KMQB 210235Z AUTO 28007KT 10SM CLR 07/05 A3002 RMK AO2 T00740051
Loading
Personal Weather Stations






























Interactive Weather Map
Tropical Storm Tracking
New forecast layout! Learn more

10-Day Weather Forecast

Advertisements
Track Severe Weather on mobile